Time;durP1;ratioP1;P1;durP2;ratioP2;P2;SDS_P1;SDS_P2;PMS_P1;PMS_P2;Temp;Humidity;BMP_temperature;BMP_pressure;BME280_temperature;BME280_humidity;BME280_pressure;Samples;Min_cycle;Max_cycle;Signal;HPM_P1;HPM_P2
2021/09/09 00:01:46;;;;;;;3.70;3.40;;;14.80;99.90;;;;;;6061609;23;20384;-83
2021/09/09 00:04:31;;;;;;;3.35;3.08;;;14.70;99.90;;;;;;6083499;23;20376;-88
2021/09/09 00:07:15;;;;;;;3.75;3.45;;;14.70;99.90;;;;;;6089108;23;20435;-83
2021/09/09 00:10:00;;;;;;;5.03;3.17;;;14.70;99.90;;;;;;6089631;23;20407;-82
2021/09/09 00:12:44;;;;;;;3.65;3.35;;;14.70;99.90;;;;;;6067189;23;20876;-85
2021/09/09 00:15:29;;;;;;;3.80;3.40;;;14.70;99.90;;;;;;6065449;23;20430;-84
2021/09/09 00:18:14;;;;;;;3.40;3.10;;;14.50;99.90;;;;;;6066910;23;20387;-81
2021/09/09 00:20:58;;;;;;;3.77;3.17;;;14.50;99.90;;;;;;6083537;23;20495;-81
2021/09/09 00:23:43;;;;;;;4.03;3.47;;;14.50;99.90;;;;;;6081626;23;20399;-80
2021/09/09 00:26:27;;;;;;;3.65;3.35;;;14.50;99.90;;;;;;6061441;23;20371;-82
2021/09/09 00:29:12;;;;;;;4.20;3.80;;;14.40;99.90;;;;;;6081781;23;20400;-85
2021/09/09 00:31:56;;;;;;;4.05;3.65;;;14.30;99.90;;;;;;6085240;23;20391;-85
2021/09/09 00:34:40;;;;;;;3.38;3.08;;;14.20;99.90;;;;;;6080274;23;20367;-82
2021/09/09 00:37:26;;;;;;;3.20;2.75;;;14.10;99.90;;;;;;6062210;23;20399;-83
2021/09/09 00:40:11;;;;;;;3.07;2.77;;;14.10;99.90;;;;;;6081975;23;20472;-82
2021/09/09 00:42:55;;;;;;;3.13;2.83;;;14.20;99.90;;;;;;6065120;23;20379;-81
2021/09/09 00:45:39;;;;;;;3.78;3.10;;;14.10;99.90;;;;;;6062166;23;20445;-82
2021/09/09 00:48:24;;;;;;;3.13;2.88;;;14.20;99.90;;;;;;6102745;23;20380;-82
2021/09/09 00:51:08;;;;;;;2.90;2.60;;;14.10;99.90;;;;;;6082163;23;20375;-84
2021/09/09 00:53:53;;;;;;;3.00;2.80;;;14.10;99.90;;;;;;6062666;23;20379;-84
2021/09/09 00:56:37;;;;;;;3.40;3.10;;;14.10;99.90;;;;;;6063324;23;20372;-83
2021/09/09 00:59:21;;;;;;;3.15;2.70;;;14.10;99.90;;;;;;6103695;23;20432;-84
2021/09/09 01:02:06;;;;;;;3.55;3.25;;;14.00;99.90;;;;;;6064624;23;20368;-85
2021/09/09 01:04:50;;;;;;;3.10;2.75;;;14.00;99.90;;;;;;6083801;23;20372;-89
2021/09/09 01:07:34;;;;;;;2.70;2.30;;;13.90;99.90;;;;;;6066456;23;20372;-84
2021/09/09 01:10:18;;;;;;;3.20;2.90;;;13.90;99.90;;;;;;6087401;23;20678;-81
2021/09/09 01:13:08;;;;;;;3.17;2.78;;;13.90;99.90;;;;;;6088086;23;20367;-86
2021/09/09 01:15:52;;;;;;;3.70;3.13;;;13.90;99.90;;;;;;6084131;23;20408;-85
2021/09/09 01:18:36;;;;;;;2.95;2.65;;;13.90;99.90;;;;;;6091115;23;20376;-85
2021/09/09 01:21:20;;;;;;;3.00;2.70;;;13.80;99.90;;;;;;6071376;23;20384;-82
2021/09/09 01:24:09;;;;;;;3.67;3.37;;;13.80;99.90;;;;;;6090791;23;20424;-86
2021/09/09 01:26:54;;;;;;;3.45;3.08;;;13.80;99.90;;;;;;6087523;23;20511;-84
2021/09/09 01:29:40;;;;;;;2.95;2.40;;;13.70;99.90;;;;;;6067017;23;20460;-82
2021/09/09 01:32:24;;;;;;;3.70;3.40;;;13.70;99.90;;;;;;6066731;23;21009;-82
2021/09/09 01:35:09;;;;;;;3.42;2.42;;;13.70;99.90;;;;;;6105110;23;20710;-82
2021/09/09 01:37:53;;;;;;;2.78;2.58;;;13.70;99.90;;;;;;6065653;23;20928;-82
2021/09/09 01:40:37;;;;;;;3.22;2.92;;;13.70;99.90;;;;;;6064992;23;20380;-81
2021/09/09 01:43:21;;;;;;;2.90;2.70;;;13.70;99.90;;;;;;6085375;23;20739;-84
2021/09/09 01:46:05;;;;;;;2.92;2.67;;;13.60;99.90;;;;;;6064993;23;20439;-82
2021/09/09 01:48:50;;;;;;;2.83;2.35;;;13.60;99.90;;;;;;6104918;23;20392;-82
2021/09/09 01:51:34;;;;;;;2.97;2.67;;;13.60;99.90;;;;;;6084552;23;20458;-83
2021/09/09 01:54:18;;;;;;;2.80;2.60;;;13.50;99.90;;;;;;6085082;23;20427;-82
2021/09/09 01:57:03;;;;;;;2.50;2.30;;;13.50;99.90;;;;;;6084328;23;21008;-81
2021/09/09 01:59:47;;;;;;;2.70;2.50;;;13.50;99.90;;;;;;6083549;23;20501;-84
2021/09/09 02:02:32;;;;;;;3.30;3.00;;;13.50;99.90;;;;;;6083633;23;20754;-81
2021/09/09 02:05:16;;;;;;;2.65;2.45;;;13.40;99.90;;;;;;6085178;23;20396;-85
2021/09/09 02:08:00;;;;;;;2.80;2.45;;;13.40;99.90;;;;;;6088160;23;20391;-86
2021/09/09 02:10:45;;;;;;;2.88;2.67;;;13.40;99.90;;;;;;6085596;23;20387;-83
2021/09/09 02:13:29;;;;;;;2.88;2.67;;;13.30;99.90;;;;;;6083746;23;20376;-83
2021/09/09 02:16:14;;;;;;;2.75;2.53;;;13.30;99.90;;;;;;6084119;23;20423;-84
2021/09/09 02:18:58;;;;;;;3.00;2.80;;;13.20;99.90;;;;;;6085020;23;20378;-81
2021/09/09 02:21:42;;;;;;;2.53;2.20;;;13.30;99.90;;;;;;6064493;23;20380;-84
2021/09/09 02:24:26;;;;;;;3.45;2.80;;;13.30;99.90;;;;;;6063763;23;20446;-81
2021/09/09 02:27:15;;;;;;;3.17;2.45;;;13.20;99.90;;;;;;6082425;23;20376;-84
2021/09/09 02:29:59;;;;;;;2.80;2.60;;;13.20;99.90;;;;;;6104813;23;20368;-83
2021/09/09 02:32:43;;;;;;;2.80;2.60;;;13.10;99.90;;;;;;6090041;23;20755;-83
2021/09/09 02:35:27;;;;;;;2.47;2.33;;;13.10;99.90;;;;;;6089115;23;20682;-86
2021/09/09 02:38:11;;;;;;;2.88;2.67;;;13.00;99.90;;;;;;6088815;23;20423;-82
2021/09/09 02:40:56;;;;;;;3.58;2.90;;;13.00;99.90;;;;;;6087404;23;20782;-82
2021/09/09 02:43:40;;;;;;;2.58;2.38;;;12.90;99.90;;;;;;6086319;23;20396;-87
2021/09/09 02:46:24;;;;;;;2.63;2.42;;;12.90;99.90;;;;;;6084182;23;20387;-87
2021/09/09 02:49:08;;;;;;;3.58;3.00;;;12.90;99.90;;;;;;6084325;23;20395;-86
2021/09/09 02:51:53;;;;;;;2.97;2.60;;;12.80;99.90;;;;;;6106108;23;20371;-84
2021/09/09 02:54:37;;;;;;;3.42;2.97;;;12.90;99.90;;;;;;6064683;23;20488;-85
2021/09/09 02:57:21;;;;;;;3.37;3.07;;;12.70;99.90;;;;;;6084220;23;20411;-84
2021/09/09 03:00:06;;;;;;;2.87;2.67;;;12.70;99.90;;;;;;6063778;23;20457;-81
2021/09/09 03:02:51;;;;;;;2.93;2.67;;;12.70;99.90;;;;;;6086108;23;20376;-81
2021/09/09 03:05:35;;;;;;;4.05;2.50;;;12.60;99.90;;;;;;6102706;23;20436;-81
2021/09/09 03:08:20;;;;;;;3.17;2.88;;;12.60;99.90;;;;;;6083661;23;20404;-82
2021/09/09 03:11:04;;;;;;;3.45;2.70;;;12.60;99.90;;;;;;6104231;23;20380;-87
2021/09/09 03:13:48;;;;;;;2.95;2.72;;;12.60;99.90;;;;;;6061338;23;20384;-89
2021/09/09 03:16:33;;;;;;;3.60;3.10;;;12.50;99.90;;;;;;6087718;23;20448;-82
2021/09/09 03:19:17;;;;;;;3.15;2.88;;;12.50;99.90;;;;;;6086031;23;20372;-82
2021/09/09 03:22:01;;;;;;;3.28;2.97;;;12.40;99.90;;;;;;6064209;23;20375;-83
2021/09/09 03:24:46;;;;;;;3.25;3.00;;;12.40;99.90;;;;;;6103361;23;20415;-83
2021/09/09 03:27:30;;;;;;;2.90;2.58;;;12.40;99.90;;;;;;6082157;23;20379;-81
2021/09/09 03:30:14;;;;;;;2.78;2.58;;;12.30;99.90;;;;;;6061502;23;20367;-84
2021/09/09 03:32:58;;;;;;;2.67;2.47;;;12.30;99.90;;;;;;6063321;23;20360;-82
2021/09/09 03:35:43;;;;;;;4.55;3.28;;;12.30;99.90;;;;;;6101886;23;20407;-81
2021/09/09 03:38:27;;;;;;;2.70;2.50;;;12.30;99.90;;;;;;6082308;23;20372;-83
2021/09/09 03:41:11;;;;;;;2.97;2.67;;;12.30;99.90;;;;;;6060716;23;20379;-82
2021/09/09 03:43:55;;;;;;;2.88;2.67;;;12.30;99.90;;;;;;6082524;23;20420;-87
2021/09/09 03:46:39;;;;;;;3.67;3.38;;;12.30;99.90;;;;;;6069479;23;20445;-87
2021/09/09 03:49:24;;;;;;;3.00;2.70;;;12.30;99.90;;;;;;6114201;23;20376;-85
2021/09/09 03:52:08;;;;;;;2.92;2.65;;;12.30;99.90;;;;;;6074197;23;20378;-84
2021/09/09 03:54:52;;;;;;;3.40;3.00;;;12.20;99.90;;;;;;6092498;23;20428;-83
2021/09/09 03:57:37;;;;;;;3.00;2.70;;;12.20;99.90;;;;;;6092414;23;20413;-87
2021/09/09 04:00:21;;;;;;;3.40;2.80;;;12.20;99.90;;;;;;6095497;23;20437;-88
2021/09/09 04:03:05;;;;;;;3.00;2.70;;;12.10;99.90;;;;;;6099358;23;20375;-88
2021/09/09 04:05:50;;;;;;;2.92;2.72;;;12.10;99.90;;;;;;6098769;23;20936;-88
2021/09/09 04:08:34;;;;;;;3.03;2.73;;;12.10;99.90;;;;;;6099997;23;20424;-84
2021/09/09 04:11:19;;;;;;;3.40;3.10;;;12.00;99.90;;;;;;6117943;23;20376;-84
2021/09/09 04:14:03;;;;;;;3.35;3.05;;;12.00;99.90;;;;;;6104519;23;20376;-84
2021/09/09 04:16:48;;;;;;;3.17;2.88;;;12.00;99.90;;;;;;6068317;23;20750;-82
2021/09/09 04:19:32;;;;;;;3.40;3.10;;;11.90;99.90;;;;;;6124115;23;20892;-83
2021/09/09 04:22:16;;;;;;;3.10;2.80;;;11.90;99.90;;;;;;6087227;23;20888;-82
2021/09/09 04:25:02;;;;;;;3.63;3.33;;;11.90;99.90;;;;;;6064837;23;20386;-84
2021/09/09 04:27:46;;;;;;;3.45;3.15;;;11.80;99.90;;;;;;6085766;23;20404;-81
2021/09/09 04:30:30;;;;;;;3.50;3.20;;;11.80;99.90;;;;;;6086446;23;20372;-83
2021/09/09 04:33:15;;;;;;;4.03;2.87;;;11.80;99.90;;;;;;6113634;23;20375;-85
2021/09/09 04:35:59;;;;;;;3.60;3.30;;;11.80;99.90;;;;;;6118870;23;20536;-85
2021/09/09 04:38:43;;;;;;;3.57;3.10;;;11.80;99.90;;;;;;6098902;23;20389;-88
2021/09/09 04:41:27;;;;;;;3.30;3.00;;;11.90;99.90;;;;;;6077891;23;20380;-87
2021/09/09 04:44:12;;;;;;;3.13;2.67;;;11.80;99.90;;;;;;6082165;23;20432;-86
2021/09/09 04:46:56;;;;;;;3.92;3.53;;;11.80;99.90;;;;;;6098560;23;20387;-85
2021/09/09 04:49:41;;;;;;;3.40;3.10;;;11.80;99.90;;;;;;6112768;23;20367;-84
2021/09/09 04:52:25;;;;;;;3.58;3.05;;;11.70;99.90;;;;;;6076531;23;20903;-85
2021/09/09 04:55:09;;;;;;;4.18;3.78;;;11.70;99.90;;;;;;6100999;23;20379;-87
2021/09/09 04:57:54;;;;;;;3.50;3.28;;;11.70;99.90;;;;;;6082737;23;20439;-89
2021/09/09 05:00:38;;;;;;;3.35;3.05;;;11.70;99.90;;;;;;6104683;23;20386;-89
2021/09/09 05:03:23;;;;;;;3.25;2.95;;;11.70;99.90;;;;;;6104944;23;20388;-86
2021/09/09 05:06:08;;;;;;;4.50;3.20;;;11.70;99.90;;;;;;6082211;23;20413;-86
2021/09/09 05:08:52;;;;;;;4.75;3.70;;;11.70;99.90;;;;;;6064316;23;20380;-88
2021/09/09 05:11:37;;;;;;;4.40;3.10;;;11.80;99.90;;;;;;6104513;23;20404;-88
2021/09/09 05:14:21;;;;;;;3.97;3.58;;;11.70;99.90;;;;;;6084092;23;20375;-89
2021/09/09 05:17:06;;;;;;;4.00;3.60;;;11.70;99.90;;;;;;6125026;23;20387;-90
2021/09/09 05:19:50;;;;;;;4.07;3.67;;;11.70;99.90;;;;;;6102995;23;20392;-87
2021/09/09 05:22:35;;;;;;;4.13;3.72;;;11.80;99.90;;;;;;6104466;23;20371;-87
2021/09/09 05:25:20;;;;;;;3.70;3.40;;;11.80;99.90;;;;;;6103368;23;20371;-88
2021/09/09 05:28:04;;;;;;;3.42;3.13;;;11.90;99.90;;;;;;6105085;23;20408;-89
2021/09/09 05:30:49;;;;;;;3.60;3.10;;;12.00;99.90;;;;;;6105042;23;20391;-90
2021/09/09 05:33:33;;;;;;;4.20;3.42;;;12.20;99.90;;;;;;6105440;23;20383;-90
2021/09/09 05:36:18;;;;;;;3.58;3.28;;;12.20;99.90;;;;;;6105034;23;20351;-91
2021/09/09 05:39:02;;;;;;;3.20;2.92;;;12.30;99.90;;;;;;6104976;23;20392;-89
2021/09/09 05:41:46;;;;;;;2.92;2.72;;;12.40;99.90;;;;;;6105345;23;20456;-88
2021/09/09 05:44:30;;;;;;;5.70;4.03;;;12.60;99.90;;;;;;6102127;23;20749;-89
2021/09/09 05:47:15;;;;;;;3.50;3.10;;;12.80;99.90;;;;;;6069108;23;20574;-88
2021/09/09 05:50:00;;;;;;;3.30;3.00;;;12.90;99.90;;;;;;6055304;23;20419;-89
2021/09/09 05:52:45;;;;;;;3.17;2.88;;;13.00;99.90;;;;;;6063101;23;20371;-91
2021/09/09 05:55:29;;;;;;;3.03;2.80;;;13.20;99.90;;;;;;6079331;23;20392;-91
2021/09/09 05:58:14;;;;;;;3.33;3.03;;;13.30;99.90;;;;;;6080777;23;20388;-90
2021/09/09 06:00:58;;;;;;;3.42;3.13;;;13.40;99.90;;;;;;6100807;23;20381;-88
2021/09/09 06:03:44;;;;;;;3.22;2.85;;;13.60;99.90;;;;;;6078951;23;20384;-91
2021/09/09 06:06:29;;;;;;;3.10;2.80;;;13.70;99.90;;;;;;6079111;23;20375;-88
2021/09/09 06:09:14;;;;;;;3.42;2.78;;;13.90;99.90;;;;;;6118792;23;20392;-91
2021/09/09 06:11:58;;;;;;;2.95;2.75;;;14.00;99.90;;;;;;6080290;23;20920;-91
2021/09/09 06:14:43;;;;;;;2.95;2.75;;;14.10;99.90;;;;;;6079446;23;20376;-88
2021/09/09 06:17:27;;;;;;;3.38;3.00;;;14.30;99.90;;;;;;6099396;23;20435;-89
2021/09/09 06:20:12;;;;;;;3.25;2.95;;;14.50;99.90;;;;;;6078999;23;20487;-88
2021/09/09 06:22:56;;;;;;;2.70;2.50;;;14.60;99.90;;;;;;6099921;23;20392;-91
2021/09/09 06:25:41;;;;;;;4.22;2.75;;;14.80;99.90;;;;;;6098469;23;20383;-90
2021/09/09 06:28:25;;;;;;;3.40;3.10;;;15.00;99.90;;;;;;6099897;23;20416;-90
2021/09/09 06:31:10;;;;;;;5.45;3.30;;;15.20;99.90;;;;;;6076636;23;20388;-91
2021/09/09 06:33:54;;;;;;;3.00;2.70;;;15.30;99.90;;;;;;6099704;23;20356;-87
2021/09/09 06:36:39;;;;;;;2.88;2.67;;;15.40;99.90;;;;;;6078501;23;20376;-88
2021/09/09 06:39:23;;;;;;;2.70;2.50;;;15.60;99.90;;;;;;6098225;23;20413;-90
2021/09/09 06:42:08;;;;;;;3.13;2.83;;;15.80;99.90;;;;;;6079195;23;20425;-90
2021/09/09 06:44:52;;;;;;;5.90;2.95;;;16.00;99.90;;;;;;6078091;23;20524;-90
2021/09/09 06:47:36;;;;;;;3.08;2.70;;;16.10;99.90;;;;;;6100139;23;20371;-91
2021/09/09 06:50:21;;;;;;;2.80;2.60;;;16.30;99.90;;;;;;6077788;23;20464;-91
2021/09/09 06:53:05;;;;;;;2.90;2.50;;;16.50;99.90;;;;;;6098736;23;20371;-90
2021/09/09 06:55:50;;;;;;;3.92;2.83;;;16.70;99.90;;;;;;6078512;23;20400;-89
2021/09/09 06:58:34;;;;;;;2.67;2.47;;;16.80;99.90;;;;;;6099075;23;20416;-90
2021/09/09 07:01:18;;;;;;;2.40;2.20;;;17.00;99.90;;;;;;6119366;23;20375;-90
2021/09/09 07:04:02;;;;;;;2.35;2.15;;;17.20;99.90;;;;;;6078913;23;20363;-89
2021/09/09 07:06:47;;;;;;;3.35;2.55;;;17.40;99.90;;;;;;6076592;23;20841;-93
2021/09/09 07:09:31;;;;;;;2.60;2.40;;;17.70;99.90;;;;;;6099147;23;20444;-86
2021/09/09 07:12:16;;;;;;;3.03;2.72;;;17.80;99.90;;;;;;6078157;23;20406;-90
2021/09/09 07:15:00;;;;;;;2.60;2.40;;;18.00;99.90;;;;;;6117007;23;20439;-88
2021/09/09 07:17:44;;;;;;;2.50;2.30;;;18.10;99.90;;;;;;6096894;23;20376;-87
2021/09/09 07:20:28;;;;;;;2.22;2.03;;;18.20;99.90;;;;;;6077071;23;20383;-91
2021/09/09 07:23:13;;;;;;;3.25;2.42;;;18.50;99.90;;;;;;6097569;23;20372;-87
2021/09/09 07:25:57;;;;;;;2.67;2.47;;;18.50;99.90;;;;;;6117406;23;20388;-88
2021/09/09 07:28:42;;;;;;;2.50;2.30;;;18.70;99.90;;;;;;6098150;23;20384;-92
2021/09/09 07:31:26;;;;;;;2.58;2.38;;;18.80;99.90;;;;;;6077020;23;20392;-89
2021/09/09 07:34:11;;;;;;;2.65;2.20;;;19.00;99.90;;;;;;6076939;23;20375;-91
2021/09/09 07:36:55;;;;;;;3.03;2.28;;;19.10;99.90;;;;;;6095697;23;20367;-92
2021/09/09 07:39:39;;;;;;;3.08;2.00;;;19.20;99.90;;;;;;6076005;23;20403;-88
2021/09/09 07:42:24;;;;;;;3.97;2.17;;;19.40;99.90;;;;;;6096475;23;20421;-89
2021/09/09 07:45:09;;;;;;;2.22;2.03;;;19.50;99.90;;;;;;6095631;23;20364;-90
2021/09/09 07:47:54;;;;;;;1.90;1.80;;;19.60;99.90;;;;;;6076448;23;20383;-92
2021/09/09 07:50:38;;;;;;;2.73;2.13;;;19.70;99.90;;;;;;6075069;23;20452;-88
2021/09/09 07:53:22;;;;;;;2.43;1.97;;;19.80;99.90;;;;;;6075431;23;20387;-89
2021/09/09 07:56:07;;;;;;;2.90;2.30;;;19.90;99.90;;;;;;6074758;23;20407;-88
2021/09/09 07:58:51;;;;;;;2.50;2.10;;;20.00;99.90;;;;;;6093081;23;20391;-88
2021/09/09 08:01:36;;;;;;;1.88;1.77;;;20.10;99.90;;;;;;6092491;23;20404;-87
2021/09/09 08:04:20;;;;;;;3.38;2.58;;;20.20;99.90;;;;;;6074364;23;20375;-91
2021/09/09 08:07:04;;;;;;;2.28;1.98;;;20.30;99.90;;;;;;6073499;23;20383;-90
2021/09/09 08:09:49;;;;;;;1.70;1.60;;;20.40;99.90;;;;;;6093784;23;20404;-92
2021/09/09 08:12:33;;;;;;;2.88;2.08;;;20.50;99.90;;;;;;6095455;23;20375;-91
2021/09/09 08:15:17;;;;;;;1.80;1.70;;;20.60;99.90;;;;;;6073055;23;20371;-89
2021/09/09 08:18:02;;;;;;;1.90;1.77;;;20.70;99.90;;;;;;6093866;23;20372;-89
2021/09/09 08:20:46;;;;;;;3.72;2.17;;;20.80;99.90;;;;;;6093628;23;20384;-88
2021/09/09 08:23:31;;;;;;;2.05;1.88;;;21.00;99.90;;;;;;6074112;23;20472;-91
2021/09/09 08:26:15;;;;;;;2.00;1.80;;;21.00;99.90;;;;;;6092350;23;20364;-88
2021/09/09 08:28:59;;;;;;;2.10;1.90;;;21.10;99.90;;;;;;6073570;23;20445;-90
2021/09/09 08:31:43;;;;;;;2.10;1.80;;;21.20;99.90;;;;;;6072934;23;20458;-90
2021/09/09 08:34:28;;;;;;;5.88;2.17;;;21.30;99.90;;;;;;6093461;23;20372;-92
2021/09/09 08:37:13;;;;;;;1.90;1.80;;;21.40;99.90;;;;;;6073635;23;20372;-91
2021/09/09 08:39:58;;;;;;;1.70;1.60;;;21.50;99.90;;;;;;6072257;23;20416;-92
2021/09/09 08:42:44;;;;;;;2.00;1.80;;;21.70;99.90;;;;;;6092507;23;20400;-88
2021/09/09 08:45:28;;;;;;;1.92;1.80;;;21.60;99.90;;;;;;6092136;23;20371;-90
2021/09/09 08:48:14;;;;;;;2.45;2.00;;;21.70;99.90;;;;;;6074578;23;20454;-91
2021/09/09 08:50:59;;;;;;;1.90;1.77;;;21.80;99.90;;;;;;6092947;23;20723;-90
2021/09/09 08:53:43;;;;;;;1.70;1.60;;;21.80;99.90;;;;;;6074599;23;20452;-88
2021/09/09 08:56:28;;;;;;;2.55;1.73;;;21.80;99.90;;;;;;6092757;23;20423;-91
2021/09/09 08:59:12;;;;;;;2.00;1.90;;;21.90;99.90;;;;;;6092171;23;20375;-92
2021/09/09 09:02:01;;;;;;;2.20;2.00;;;22.00;99.90;;;;;;6093652;23;20375;-92
2021/09/09 09:05:06;;;;;;;2.30;2.10;;;22.10;99.90;;;;;;6093655;23;20709;-88
2021/09/09 09:07:57;;;;;;;2.08;1.98;;;22.20;99.90;;;;;;6094669;23;20396;-89
2021/09/09 09:10:41;;;;;;;2.00;1.90;;;22.30;99.90;;;;;;6113717;23;20441;-88
2021/09/09 09:13:33;;;;;;;1.98;1.88;;;22.30;99.90;;;;;;6114585;23;20444;-89
2021/09/09 09:16:18;;;;;;;2.22;2.03;;;22.40;99.90;;;;;;6113749;23;20380;-91
2021/09/09 09:19:10;;;;;;;3.40;1.85;;;22.50;99.90;;;;;;6095601;23;20456;-90
2021/09/09 09:22:03;;;;;;;1.90;1.73;;;22.60;99.90;;;;;;6096498;23;20376;-89
2021/09/09 09:24:49;;;;;;;1.83;1.73;;;22.80;99.90;;;;;;6076355;23;20435;-91
2021/09/09 09:27:33;;;;;;;2.00;1.90;;;22.90;99.90;;;;;;6095027;23;20452;-92
2021/09/09 09:30:18;;;;;;;2.30;2.10;;;23.00;99.90;;;;;;6074447;23;20368;-91
2021/09/09 09:33:02;;;;;;;3.10;1.70;;;23.10;99.90;;;;;;6074375;23;20453;-90
2021/09/09 09:35:46;;;;;;;2.20;1.67;;;23.20;99.90;;;;;;6074869;23;20443;-92
2021/09/09 09:38:31;;;;;;;1.60;1.50;;;23.30;99.90;;;;;;6090967;23;21001;-89
2021/09/09 09:41:20;;;;;;;2.70;2.08;;;23.50;99.90;;;;;;6096701;23;20392;-89
2021/09/09 09:44:07;;;;;;;2.88;1.92;;;23.50;99.90;;;;;;6096601;23;20367;-90
2021/09/09 09:46:52;;;;;;;2.75;1.98;;;23.60;99.90;;;;;;6076015;23;20944;-92
2021/09/09 09:49:48;;;;;;;2.90;2.00;;;23.80;99.90;;;;;;6074060;23;20388;-91
2021/09/09 09:52:33;;;;;;;1.80;1.70;;;24.00;99.90;;;;;;6077138;23;20380;-91
2021/09/09 09:55:17;;;;;;;2.00;1.80;;;24.20;99.90;;;;;;6098262;23;20376;-92
2021/09/09 09:58:02;;;;;;;2.17;1.90;;;24.40;99.90;;;;;;6096879;23;20383;-92
2021/09/09 10:00:46;;;;;;;1.83;1.70;;;24.70;99.90;;;;;;6077101;23;20376;-92
2021/09/09 10:03:30;;;;;;;2.13;1.63;;;24.90;99.90;;;;;;6078793;23;20383;-91
2021/09/09 10:06:15;;;;;;;2.05;1.85;;;25.20;99.90;;;;;;6095732;23;20375;-93
2021/09/09 10:09:01;;;;;;;3.08;2.20;;;25.40;99.90;;;;;;6117457;23;20380;-89
2021/09/09 10:11:46;;;;;;;2.55;1.60;;;25.50;99.00;;;;;;6096345;23;20384;-90
2021/09/09 10:14:30;;;;;;;1.92;1.80;;;25.50;99.90;;;;;;6075368;23;20372;-89
2021/09/09 10:17:21;;;;;;;2.73;1.80;;;25.80;99.40;;;;;;6098293;23;20393;-91
2021/09/09 10:20:31;;;;;;;1.83;1.73;;;26.20;99.90;;;;;;6102105;23;20399;-89
2021/09/09 10:23:20;;;;;;;1.93;1.80;;;26.50;99.90;;;;;;6123020;23;20384;-90
2021/09/09 10:26:05;;;;;;;1.65;1.55;;;26.50;96.90;;;;;;6082241;23;20392;-88
2021/09/09 10:29:08;;;;;;;2.30;1.92;;;26.60;96.40;;;;;;6091686;23;20379;-87
2021/09/09 10:32:10;;;;;;;1.70;1.60;;;27.00;95.90;;;;;;6071810;23;20387;-91
2021/09/09 10:35:18;;;;;;;1.70;1.60;;;27.40;97.20;;;;;;6125777;23;20397;-90
2021/09/09 10:38:18;;;;;;;1.80;1.70;;;27.50;94.90;;;;;;6059569;23;20369;-89
2021/09/09 11:48:57;;;;;;;1.92;1.75;;;32.20;68.50;;;;;;6169103;23;20422;-82
2021/09/09 11:57:49;;;;;;;1.73;1.63;;;33.00;72.40;;;;;;6170934;23;20406;-80
2021/09/09 12:36:04;;;;;;;1.80;1.70;;;34.80;56.90;;;;;;6147347;23;20388;-81
2021/09/09 12:38:53;;;;;;;2.03;1.90;;;35.10;58.70;;;;;;6090555;23;20382;-81
2021/09/09 12:51:20;;;;;;;1.98;1.88;;;35.60;56.80;;;;;;6152353;23;20455;-81
2021/09/09 13:15:36;;;;;;;2.60;1.90;;;35.90;52.90;;;;;;6169487;23;20374;-82
2021/09/09 13:18:29;;;;;;;3.20;1.70;;;36.20;53.90;;;;;;6073046;23;20381;-80
2021/09/09 13:56:58;;;;;;;1.98;1.80;;;35.10;48.50;;;;;;5644661;22;13058419;-81
2021/09/09 13:59:46;;;;;;;1.85;1.75;;;35.00;50.10;;;;;;6144768;22;20356;-81
2021/09/09 14:02:36;;;;;;;2.45;1.80;;;35.30;48.20;;;;;;6167637;22;20458;-80
2021/09/09 14:05:25;;;;;;;1.70;1.60;;;35.50;49.90;;;;;;6178244;22;20385;-80
2021/09/09 14:08:20;;;;;;;1.83;1.73;;;35.90;49.50;;;;;;6196959;23;20451;-81
2021/09/09 14:14:34;;;;;;;1.67;1.58;;;36.80;49.50;;;;;;6215187;22;20370;-82
2021/09/09 14:17:30;;;;;;;2.20;2.00;;;37.00;49.20;;;;;;6160196;22;20375;-82
2021/09/09 14:20:28;;;;;;;2.10;1.90;;;36.50;48.90;;;;;;6154599;22;20455;-80
2021/09/09 14:23:17;;;;;;;1.83;1.73;;;36.10;48.20;;;;;;6193189;22;20357;-81
2021/09/09 14:26:05;;;;;;;1.90;1.80;;;35.80;48.70;;;;;;6180616;22;20433;-82
2021/09/09 14:28:50;;;;;;;1.70;1.40;;;35.70;51.00;;;;;;6160603;23;20421;-81
2021/09/09 14:43:49;;;;;;;1.70;1.60;;;36.10;47.90;;;;;;6245552;22;20357;-78
2021/09/09 14:46:36;;;;;;;1.70;1.60;;;34.90;48.60;;;;;;6173732;23;20366;-79
2021/09/09 14:49:30;;;;;;;1.95;1.63;;;34.70;51.20;;;;;;6174816;23;20398;-78
2021/09/09 14:52:25;;;;;;;1.80;1.70;;;34.70;50.60;;;;;;6197885;22;20385;-79
2021/09/09 14:55:16;;;;;;;1.85;1.65;;;33.90;50.00;;;;;;6212145;22;20391;-79
2021/09/09 14:58:01;;;;;;;1.47;1.37;;;33.20;52.50;;;;;;6195286;22;20350;-78
2021/09/09 15:00:46;;;;;;;3.30;2.50;;;32.60;53.00;;;;;;6192735;22;20394;-79
2021/09/09 15:03:33;;;;;;;2.00;1.90;;;32.10;53.70;;;;;;6173522;22;20383;-79
2021/09/09 15:06:18;;;;;;;1.70;1.60;;;31.70;53.10;;;;;;6212127;22;20354;-78
2021/09/09 15:09:06;;;;;;;1.55;1.45;;;31.30;55.10;;;;;;6180162;22;20379;-79
2021/09/09 15:11:51;;;;;;;2.20;1.80;;;31.00;55.80;;;;;;6172778;23;20361;-78
2021/09/09 15:14:37;;;;;;;1.55;1.45;;;30.80;55.00;;;;;;6194427;22;20403;-78
2021/09/09 15:17:23;;;;;;;1.60;1.50;;;30.50;55.20;;;;;;6193931;22;20370;-78
2021/09/09 15:20:10;;;;;;;1.63;1.52;;;30.10;56.10;;;;;;6212145;22;20422;-79
2021/09/09 15:22:55;;;;;;;2.00;1.70;;;29.90;56.30;;;;;;6178383;22;20379;-78
2021/09/09 15:25:40;;;;;;;1.48;1.38;;;29.80;57.00;;;;;;6200220;23;20362;-78
2021/09/09 15:28:26;;;;;;;1.63;1.52;;;29.70;57.20;;;;;;6194938;22;20354;-79
2021/09/09 15:31:11;;;;;;;1.30;1.30;;;29.30;58.20;;;;;;6214692;22;20388;-78
2021/09/09 15:33:56;;;;;;;1.58;1.48;;;29.30;59.20;;;;;;6214086;23;20511;-79
2021/09/09 15:36:43;;;;;;;2.25;2.05;;;29.40;59.30;;;;;;6222316;23;20426;-80
2021/09/09 15:39:27;;;;;;;2.15;2.00;;;29.50;59.80;;;;;;6157479;23;20381;-82
2021/09/09 15:42:12;;;;;;;2.85;1.70;;;29.60;59.40;;;;;;6160210;23;20374;-78
2021/09/09 15:44:56;;;;;;;5.35;1.55;;;29.90;58.30;;;;;;6165104;23;20380;-78
2021/09/09 15:47:40;;;;;;;1.50;1.40;;;29.80;58.00;;;;;;6129541;23;20388;-80
2021/09/09 15:50:25;;;;;;;1.60;1.50;;;29.60;59.50;;;;;;6120322;23;20920;-80
2021/09/09 15:53:09;;;;;;;1.60;1.50;;;29.30;59.30;;;;;;6164076;23;20440;-80
2021/09/09 15:55:53;;;;;;;1.52;1.42;;;29.00;60.90;;;;;;6146998;23;20648;-77
2021/09/09 15:58:38;;;;;;;1.45;1.35;;;28.80;61.70;;;;;;6126422;23;20456;-78
2021/09/09 16:01:23;;;;;;;1.55;1.45;;;28.70;61.80;;;;;;6121872;23;20380;-79
2021/09/09 16:04:07;;;;;;;1.40;1.30;;;28.50;62.50;;;;;;6122612;23;20385;-79
2021/09/09 16:06:51;;;;;;;1.67;1.58;;;28.40;62.70;;;;;;6124014;23;20435;-79
2021/09/09 16:09:36;;;;;;;1.65;1.38;;;28.40;62.40;;;;;;6120591;23;20463;-78
2021/09/09 16:12:21;;;;;;;1.58;1.48;;;28.20;63.00;;;;;;6102434;23;20377;-80
2021/09/09 16:15:06;;;;;;;2.10;1.80;;;27.90;64.40;;;;;;6117976;23;20389;-81
2021/09/09 16:17:50;;;;;;;1.58;1.48;;;27.60;63.80;;;;;;6117650;23;20376;-82
2021/09/09 16:20:34;;;;;;;1.17;1.17;;;27.50;64.20;;;;;;6136298;23;20408;-82
2021/09/09 16:23:19;;;;;;;1.70;1.60;;;27.30;64.10;;;;;;6137467;23;20524;-81
2021/09/09 16:26:03;;;;;;;1.25;1.20;;;27.10;65.00;;;;;;6095588;23;20392;-82
2021/09/09 16:28:47;;;;;;;1.50;1.40;;;27.10;64.30;;;;;;6095378;23;20426;-82
2021/09/09 16:31:31;;;;;;;1.67;1.57;;;26.90;65.00;;;;;;6114888;23;20841;-83
2021/09/09 16:34:16;;;;;;;1.40;1.30;;;26.80;66.20;;;;;;6135095;23;20903;-85
2021/09/09 16:37:00;;;;;;;1.60;1.50;;;26.70;66.90;;;;;;6113222;23;20427;-81
2021/09/09 16:39:44;;;;;;;1.17;1.17;;;26.60;68.00;;;;;;6129054;23;20459;-87
2021/09/09 16:42:28;;;;;;;1.20;1.20;;;26.60;67.70;;;;;;6152762;23;20460;-84
2021/09/09 16:45:15;;;;;;;1.58;1.48;;;26.50;69.20;;;;;;6149627;23;20444;-86
2021/09/09 16:47:59;;;;;;;1.70;1.60;;;26.40;70.50;;;;;;6171394;23;20417;-87
2021/09/09 16:50:44;;;;;;;1.50;1.40;;;26.40;70.80;;;;;;6148893;23;20436;-87
2021/09/09 16:53:28;;;;;;;3.80;1.50;;;26.20;69.30;;;;;;6105598;23;20368;-86
2021/09/09 16:56:21;;;;;;;1.45;1.35;;;26.00;71.00;;;;;;6144769;23;20408;-89
2021/09/09 16:59:12;;;;;;;1.20;1.20;;;25.90;72.60;;;;;;6162090;23;20466;-88
2021/09/09 17:01:57;;;;;;;1.55;1.45;;;25.80;73.60;;;;;;6103784;23;20422;-88
2021/09/09 17:04:45;;;;;;;1.50;1.40;;;25.70;74.10;;;;;;6119239;23;20467;-86
2021/09/09 17:07:29;;;;;;;2.08;1.40;;;25.60;74.50;;;;;;6100167;23;20753;-86
2021/09/09 17:10:18;;;;;;;1.00;1.00;;;25.40;74.80;;;;;;6120904;23;20415;-88
2021/09/09 17:13:04;;;;;;;1.27;1.20;;;25.30;75.70;;;;;;6120884;23;20380;-84
2021/09/09 17:15:48;;;;;;;1.20;1.20;;;25.20;75.80;;;;;;6119511;23;20911;-87
2021/09/09 17:18:33;;;;;;;1.10;1.10;;;25.10;76.00;;;;;;6100590;23;20360;-87
2021/09/09 17:21:17;;;;;;;1.30;1.20;;;25.00;76.70;;;;;;6138757;23;20453;-87
2021/09/09 17:24:02;;;;;;;1.43;1.30;;;24.90;77.40;;;;;;6120496;23;20416;-87
2021/09/09 17:26:46;;;;;;;1.13;1.13;;;24.70;77.80;;;;;;6118041;23;20372;-86
2021/09/09 17:29:30;;;;;;;1.25;1.20;;;24.60;78.50;;;;;;6117553;23;20364;-85
2021/09/09 17:32:14;;;;;;;1.20;1.10;;;24.40;79.60;;;;;;6118799;23;20368;-85